Time;durP1;ratioP1;P1;durP2;ratioP2;P2;SDS_P1;SDS_P2;PMS_P1;PMS_P2;Temp;Humidity;BMP_temperature;BMP_pressure;BME280_temperature;BME280_humidity;BME280_pressure;Samples;Min_cycle;Max_cycle;Signal;HPM_P1;HPM_P2
2021/05/10 00:00:40;;;;;;;2.35;1.20;;;21.80;76.40;;;;;;4177196;28;20029;-70
2021/05/10 00:02:40;;;;;;;4.55;1.55;;;21.80;76.70;;;;;;4176321;28;20036;-70
2021/05/10 00:04:41;;;;;;;3.28;1.10;;;21.80;76.70;;;;;;4175811;28;20029;-70
2021/05/10 00:06:41;;;;;;;4.63;1.38;;;21.70;77.30;;;;;;4177831;28;20029;-71
2021/05/10 00:08:43;;;;;;;4.57;1.45;;;21.70;77.30;;;;;;4193787;28;20036;-71
2021/05/10 00:10:43;;;;;;;4.80;1.13;;;21.70;77.70;;;;;;4194010;28;20640;-71
2021/05/10 00:12:44;;;;;;;5.60;1.33;;;21.70;77.80;;;;;;4193842;28;20039;-70
2021/05/10 00:14:48;;;;;;;2.00;1.17;;;21.70;78.30;;;;;;4193958;28;20047;-70
2021/05/10 00:16:48;;;;;;;2.78;1.40;;;21.60;79.80;;;;;;4193738;28;20036;-70
2021/05/10 00:18:49;;;;;;;4.82;1.40;;;21.60;80.20;;;;;;4193608;28;20033;-70
2021/05/10 00:20:49;;;;;;;1.67;1.10;;;21.60;82.70;;;;;;4194080;28;20064;-71
2021/05/10 00:22:50;;;;;;;3.42;1.20;;;21.50;82.90;;;;;;4193551;28;20043;-70
2021/05/10 00:24:51;;;;;;;8.15;1.45;;;21.50;84.30;;;;;;4192224;28;20032;-70
2021/05/10 00:26:51;;;;;;;1.70;1.23;;;21.50;85.70;;;;;;4194048;28;20028;-70
2021/05/10 00:28:52;;;;;;;2.88;1.20;;;21.50;85.10;;;;;;4193734;28;20127;-70
2021/05/10 00:30:53;;;;;;;1.88;1.00;;;21.50;85.70;;;;;;4192983;28;20391;-70
2021/05/10 00:32:53;;;;;;;1.65;1.00;;;21.40;87.10;;;;;;4192079;28;20116;-71
2021/05/10 00:34:54;;;;;;;1.75;1.20;;;21.40;87.60;;;;;;4193319;28;20488;-70
2021/05/10 00:36:54;;;;;;;1.90;1.10;;;21.40;87.40;;;;;;4193715;28;20028;-71
2021/05/10 00:38:55;;;;;;;2.58;1.20;;;21.30;87.00;;;;;;4186759;28;20033;-70
2021/05/10 00:40:55;;;;;;;2.17;1.08;;;21.30;86.70;;;;;;4193591;28;20032;-71
2021/05/10 00:42:57;;;;;;;2.25;1.02;;;21.30;87.70;;;;;;4193550;28;20024;-71
2021/05/10 00:44:57;;;;;;;1.48;1.00;;;21.20;86.70;;;;;;4193634;28;20639;-71
2021/05/10 00:46:58;;;;;;;4.28;1.10;;;21.20;85.50;;;;;;4193695;28;20037;-71
2021/05/10 00:48:59;;;;;;;3.75;1.30;;;21.20;86.70;;;;;;4193429;28;20107;-71
2021/05/10 00:50:59;;;;;;;3.22;1.30;;;21.20;86.70;;;;;;4193675;28;20762;-71
2021/05/10 00:53:00;;;;;;;4.32;1.40;;;21.20;86.20;;;;;;4191251;28;20107;-71
2021/05/10 00:55:01;;;;;;;2.08;1.10;;;21.20;87.30;;;;;;4178196;28;20795;-70
2021/05/10 00:57:02;;;;;;;2.45;1.15;;;21.10;86.80;;;;;;4191962;28;20044;-70
2021/05/10 00:59:02;;;;;;;1.60;0.98;;;21.20;85.30;;;;;;4191376;28;20029;-71
2021/05/10 01:01:03;;;;;;;2.30;1.40;;;21.20;86.10;;;;;;4193531;28;20091;-70
2021/05/10 01:03:05;;;;;;;1.92;1.20;;;21.20;83.10;;;;;;4193449;28;20576;-71
2021/05/10 01:05:08;;;;;;;4.17;1.40;;;21.20;82.90;;;;;;4192628;28;20102;-70
2021/05/10 01:07:09;;;;;;;2.80;1.17;;;21.20;83.80;;;;;;4193321;28;20028;-70
2021/05/10 01:09:10;;;;;;;3.38;0.98;;;21.20;82.90;;;;;;4192648;28;20039;-70
2021/05/10 01:11:11;;;;;;;4.63;1.27;;;21.20;82.70;;;;;;4191256;28;20043;-71
2021/05/10 01:13:12;;;;;;;2.25;1.00;;;21.30;83.40;;;;;;4192990;28;20029;-71
2021/05/10 01:15:16;;;;;;;1.98;1.35;;;21.30;83.20;;;;;;4192805;28;20112;-71
2021/05/10 01:17:16;;;;;;;2.67;1.17;;;21.30;82.90;;;;;;4192885;28;20675;-71
2021/05/10 01:19:21;;;;;;;2.05;0.82;;;21.30;82.10;;;;;;4193073;28;20112;-71
2021/05/10 01:21:23;;;;;;;2.28;1.08;;;21.30;81.60;;;;;;4192712;28;20041;-70
2021/05/10 01:23:24;;;;;;;2.72;1.20;;;21.30;82.20;;;;;;4191692;28;20036;-70
2021/05/10 01:25:33;;;;;;;3.53;1.27;;;21.20;81.90;;;;;;4192754;28;20418;-71
2021/05/10 01:27:35;;;;;;;1.30;0.90;;;21.20;82.10;;;;;;4192605;28;20032;-71
2021/05/10 01:29:35;;;;;;;4.45;1.50;;;21.20;81.70;;;;;;4191147;28;20032;-71
2021/05/10 01:31:36;;;;;;;5.18;1.30;;;21.20;82.50;;;;;;4193114;28;20695;-71
2021/05/10 01:33:37;;;;;;;2.17;0.95;;;21.20;81.60;;;;;;4191493;28;20097;-70
2021/05/10 01:35:40;;;;;;;1.85;0.88;;;21.20;81.60;;;;;;4192518;28;20488;-70
2021/05/10 01:37:40;;;;;;;5.30;1.27;;;21.10;81.80;;;;;;4192617;28;20028;-70
2021/05/10 01:39:41;;;;;;;2.67;1.23;;;21.20;80.60;;;;;;4184363;28;20063;-70
2021/05/10 01:41:42;;;;;;;4.53;1.15;;;21.10;79.50;;;;;;4182088;28;20481;-71
2021/05/10 01:43:43;;;;;;;6.18;1.30;;;21.20;78.40;;;;;;4191251;28;20082;-70
2021/05/10 01:45:45;;;;;;;2.53;1.15;;;21.20;78.30;;;;;;4192192;28;20028;-71
2021/05/10 01:47:45;;;;;;;4.63;1.38;;;21.30;77.20;;;;;;4191272;28;20032;-70
2021/05/10 01:49:47;;;;;;;2.58;1.10;;;21.30;77.30;;;;;;4191144;28;20520;-70
2021/05/10 01:51:49;;;;;;;2.67;1.02;;;21.40;76.60;;;;;;4192320;28;20033;-70
2021/05/10 01:53:49;;;;;;;2.67;1.50;;;21.50;75.40;;;;;;4192307;28;20036;-71
2021/05/10 01:55:50;;;;;;;2.53;1.00;;;21.50;75.00;;;;;;4182933;28;20033;-70
2021/05/10 01:57:53;;;;;;;3.40;1.60;;;21.60;73.60;;;;;;4190971;28;20024;-70
2021/05/10 01:59:54;;;;;;;5.55;1.35;;;21.60;74.60;;;;;;4190810;28;20033;-70
2021/05/10 02:01:55;;;;;;;2.75;0.95;;;21.70;73.50;;;;;;4192508;28;20024;-70
2021/05/10 02:03:59;;;;;;;3.70;0.90;;;21.70;73.70;;;;;;4192442;28;20115;-70
2021/05/10 02:06:00;;;;;;;2.63;0.93;;;21.70;72.60;;;;;;4190445;28;20059;-70
2021/05/10 02:08:03;;;;;;;1.42;1.10;;;21.70;72.20;;;;;;4192583;28;20040;-71
2021/05/10 02:10:05;;;;;;;;;;;21.70;72.30;;;;;;4190912;28;20024;-70
2021/05/10 02:12:06;;;;;;;1.63;0.93;;;21.80;72.60;;;;;;4192290;28;19916;-70
2021/05/10 02:14:07;;;;;;;3.47;1.25;;;21.80;71.80;;;;;;4192320;28;20045;-70
2021/05/10 02:16:07;;;;;;;2.22;1.20;;;21.80;71.90;;;;;;4190684;28;20621;-71
2021/05/10 02:18:09;;;;;;;5.03;1.25;;;21.80;71.50;;;;;;4191238;28;20388;-70
2021/05/10 02:20:10;;;;;;;8.23;1.30;;;21.80;71.60;;;;;;4192233;28;20048;-70
2021/05/10 02:22:11;;;;;;;3.10;1.27;;;21.80;70.80;;;;;;4192298;28;20267;-71
2021/05/10 02:24:11;;;;;;;2.95;1.10;;;21.80;71.20;;;;;;4192186;28;20033;-70
2021/05/10 02:26:12;;;;;;;3.45;1.08;;;21.80;70.50;;;;;;4192019;28;20044;-70
2021/05/10 02:28:13;;;;;;;1.95;0.90;;;21.90;70.10;;;;;;4192493;28;20044;-71
2021/05/10 02:30:15;;;;;;;4.00;1.00;;;21.90;70.50;;;;;;4192352;28;20414;-71
2021/05/10 02:32:16;;;;;;;2.20;1.02;;;21.90;69.50;;;;;;4192423;28;20279;-70
2021/05/10 02:34:16;;;;;;;0.70;0.70;;;21.90;69.30;;;;;;4192472;28;20492;-70
2021/05/10 02:36:17;;;;;;;2.30;1.00;;;22.00;69.10;;;;;;4192240;28;20082;-70
2021/05/10 02:38:19;;;;;;;2.00;1.08;;;22.00;69.20;;;;;;4191898;28;20037;-70
2021/05/10 02:40:20;;;;;;;3.42;1.00;;;21.90;69.70;;;;;;4192408;28;20020;-70
2021/05/10 02:42:20;;;;;;;8.80;1.27;;;21.90;68.90;;;;;;4190655;28;20111;-70
2021/05/10 02:44:21;;;;;;;1.92;0.93;;;22.00;69.40;;;;;;4191867;28;20028;-71
2021/05/10 02:46:22;;;;;;;2.97;1.00;;;22.00;69.30;;;;;;4190485;28;20035;-70
2021/05/10 02:48:23;;;;;;;4.35;1.23;;;22.00;69.20;;;;;;4192275;28;20028;-70
2021/05/10 02:50:25;;;;;;;3.92;0.80;;;22.00;69.50;;;;;;4191752;28;20032;-70
2021/05/10 02:52:26;;;;;;;;;;;22.00;69.00;;;;;;4192631;28;20059;-70
2021/05/10 02:54:26;;;;;;;4.97;1.13;;;22.00;69.10;;;;;;4193253;28;20322;-70
2021/05/10 02:56:27;;;;;;;1.45;0.75;;;22.00;69.20;;;;;;4195030;28;20459;-70
2021/05/10 02:58:27;;;;;;;1.95;0.90;;;22.10;69.50;;;;;;4193496;28;20115;-70
2021/05/10 03:00:28;;;;;;;3.50;1.33;;;21.90;69.10;;;;;;4194978;28;20040;-70
2021/05/10 03:02:29;;;;;;;4.03;1.58;;;22.00;69.50;;;;;;4194845;28;20094;-70
2021/05/10 03:04:30;;;;;;;3.78;1.08;;;21.90;69.30;;;;;;4195071;28;20068;-70
2021/05/10 03:06:30;;;;;;;2.92;1.02;;;22.00;69.70;;;;;;4193664;28;20079;-70
2021/05/10 03:08:31;;;;;;;3.35;1.10;;;22.00;69.80;;;;;;4193424;28;20079;-70
2021/05/10 03:10:31;;;;;;;2.15;1.08;;;21.90;69.50;;;;;;4195046;28;20716;-70
2021/05/10 03:12:32;;;;;;;3.28;1.35;;;21.90;70.10;;;;;;4195495;28;20032;-70
2021/05/10 03:14:33;;;;;;;7.30;1.15;;;21.90;70.10;;;;;;4193129;28;20035;-71
2021/05/10 03:16:33;;;;;;;3.10;1.50;;;21.90;70.60;;;;;;4194716;28;20048;-71
2021/05/10 03:18:34;;;;;;;6.68;1.85;;;21.80;70.60;;;;;;4194208;28;20036;-71
2021/05/10 03:20:35;;;;;;;2.55;0.93;;;21.80;70.60;;;;;;4192705;28;20549;-70
2021/05/10 03:22:36;;;;;;;10.05;1.83;;;21.70;70.60;;;;;;4194153;28;20480;-70
2021/05/10 03:24:37;;;;;;;7.57;1.60;;;21.70;70.70;;;;;;4194327;28;20575;-70
2021/05/10 03:26:38;;;;;;;7.57;1.50;;;21.70;71.80;;;;;;4194276;28;20136;-70
2021/05/10 03:28:39;;;;;;;5.70;1.35;;;21.70;70.90;;;;;;4176998;28;20122;-70
2021/05/10 03:30:40;;;;;;;6.85;1.58;;;21.70;70.90;;;;;;4177398;28;20492;-71
2021/05/10 03:32:42;;;;;;;8.95;1.83;;;21.70;71.80;;;;;;4194161;28;20039;-70
2021/05/10 03:34:43;;;;;;;11.40;1.77;;;21.60;72.20;;;;;;4194597;28;20475;-70
2021/05/10 03:36:43;;;;;;;4.80;1.40;;;21.60;72.20;;;;;;4194407;28;20052;-70
2021/05/10 03:38:44;;;;;;;3.72;0.90;;;21.60;71.90;;;;;;4194789;28;20048;-71
2021/05/10 03:40:45;;;;;;;5.25;1.38;;;21.50;72.90;;;;;;4194797;28;20033;-70
2021/05/10 03:42:46;;;;;;;7.32;1.88;;;21.50;73.20;;;;;;4194676;28;20090;-70
2021/05/10 03:44:47;;;;;;;4.22;1.60;;;21.50;72.90;;;;;;4194451;28;20036;-71
2021/05/10 03:46:47;;;;;;;9.43;1.48;;;21.40;73.20;;;;;;4194198;28;20059;-70
2021/05/10 03:48:48;;;;;;;4.57;1.85;;;21.40;73.90;;;;;;4194465;28;20032;-71
2021/05/10 03:50:48;;;;;;;8.23;1.50;;;21.40;73.40;;;;;;4194117;28;20766;-70
2021/05/10 03:52:50;;;;;;;6.65;1.23;;;21.30;73.40;;;;;;4194249;28;20119;-70
2021/05/10 03:54:51;;;;;;;7.22;1.42;;;21.30;74.10;;;;;;4193700;28;20028;-70
2021/05/10 03:56:52;;;;;;;6.65;1.30;;;21.30;74.40;;;;;;4194250;28;20033;-70
2021/05/10 03:58:52;;;;;;;2.90;1.27;;;21.30;73.80;;;;;;4194391;28;20040;-70
2021/05/10 04:00:53;;;;;;;6.82;1.13;;;21.30;73.90;;;;;;4193142;28;20039;-70
2021/05/10 04:02:53;;;;;;;2.05;1.00;;;21.30;74.40;;;;;;4193406;28;20178;-70
2021/05/10 04:05:05;;;;;;;3.22;1.20;;;21.30;73.60;;;;;;4193639;28;20036;-70
2021/05/10 04:15:51;;;;;;;5.47;1.30;;;21.30;74.90;;;;;;4193917;28;20028;-70
2021/05/10 04:17:52;;;;;;;2.30;1.00;;;21.30;75.40;;;;;;4194067;28;20393;-71
2021/05/10 04:19:52;;;;;;;3.92;1.10;;;21.30;74.90;;;;;;4193648;28;20056;-70
2021/05/10 04:21:53;;;;;;;1.67;1.00;;;21.30;75.20;;;;;;4193889;28;20037;-70
2021/05/10 04:23:54;;;;;;;2.00;1.10;;;21.30;76.10;;;;;;4192364;28;20480;-70
2021/05/10 04:25:55;;;;;;;3.22;1.08;;;21.30;74.20;;;;;;4193722;28;20036;-70
2021/05/10 04:27:55;;;;;;;2.80;1.20;;;21.30;74.60;;;;;;4193415;28;20048;-70
2021/05/10 04:29:56;;;;;;;3.47;1.38;;;21.30;74.80;;;;;;4194144;28;20033;-70
2021/05/10 04:31:57;;;;;;;1.13;0.80;;;21.30;74.90;;;;;;4193711;28;20036;-70
2021/05/10 04:33:57;;;;;;;1.42;0.85;;;21.30;75.30;;;;;;4192323;28;20392;-70
2021/05/10 04:35:59;;;;;;;2.17;1.23;;;21.30;75.50;;;;;;4193541;28;20039;-71
2021/05/10 04:38:02;;;;;;;1.50;0.82;;;21.30;75.20;;;;;;4191504;28;20401;-71
2021/05/10 04:40:03;;;;;;;3.90;1.15;;;21.30;75.60;;;;;;4193755;28;20131;-70
2021/05/10 04:42:04;;;;;;;3.83;1.25;;;21.30;75.60;;;;;;4191197;28;20063;-70
2021/05/10 04:44:05;;;;;;;2.55;0.90;;;21.30;76.10;;;;;;4193377;28;20032;-70
2021/05/10 04:46:06;;;;;;;3.13;0.98;;;21.30;76.30;;;;;;4192214;28;20067;-70
2021/05/10 04:48:06;;;;;;;3.50;1.27;;;21.20;76.60;;;;;;4193548;28;20119;-70
2021/05/10 04:50:10;;;;;;;6.57;1.25;;;21.30;77.20;;;;;;4193392;28;20048;-70
2021/05/10 04:52:10;;;;;;;3.30;1.02;;;21.20;77.20;;;;;;4191903;28;20040;-70
2021/05/10 04:54:11;;;;;;;4.47;1.30;;;21.20;77.50;;;;;;4191469;28;20032;-71
2021/05/10 04:56:11;;;;;;;2.60;1.30;;;21.10;78.10;;;;;;4193218;28;20028;-70
2021/05/10 04:58:12;;;;;;;7.68;1.00;;;21.10;78.00;;;;;;4188679;28;20825;-70
2021/05/10 05:00:14;;;;;;;3.90;1.40;;;21.10;77.90;;;;;;4187352;28;20511;-69
2021/05/10 05:02:15;;;;;;;10.70;1.20;;;21.10;78.20;;;;;;4183843;28;20024;-69
2021/05/10 05:04:19;;;;;;;7.70;1.25;;;21.10;79.10;;;;;;4189322;28;20060;-69
2021/05/10 05:06:19;;;;;;;2.38;1.20;;;21.10;78.70;;;;;;4191836;28;20033;-69
2021/05/10 05:08:20;;;;;;;10.57;1.45;;;21.10;79.00;;;;;;4191430;28;20024;-69
2021/05/10 05:10:21;;;;;;;2.28;1.25;;;21.10;78.40;;;;;;4191118;28;20097;-69
2021/05/10 05:12:21;;;;;;;2.25;1.00;;;21.10;78.90;;;;;;4191621;28;20024;-69
2021/05/10 05:14:22;;;;;;;6.22;1.42;;;21.10;79.60;;;;;;4191699;28;20016;-69
2021/05/10 05:16:22;;;;;;;8.43;1.30;;;21.10;79.90;;;;;;4187995;28;20450;-69
2021/05/10 05:18:23;;;;;;;5.18;1.60;;;21.10;80.10;;;;;;4190942;28;20028;-69
2021/05/10 05:20:24;;;;;;;4.00;1.48;;;21.10;79.30;;;;;;4189500;28;20029;-70
2021/05/10 05:22:24;;;;;;;3.42;1.30;;;21.10;79.70;;;;;;4178600;28;20047;-70
2021/05/10 05:24:25;;;;;;;3.47;1.10;;;21.10;79.60;;;;;;4183308;28;20033;-70
2021/05/10 05:26:26;;;;;;;3.15;1.30;;;21.00;79.70;;;;;;4191573;28;20029;-70
2021/05/10 05:28:27;;;;;;;1.65;1.05;;;21.10;79.80;;;;;;4187887;28;20668;-70
2021/05/10 05:30:28;;;;;;;8.20;1.33;;;21.00;79.80;;;;;;4182556;28;20558;-69
2021/05/10 05:32:30;;;;;;;4.93;1.48;;;21.10;79.80;;;;;;4183440;28;20032;-69
2021/05/10 05:34:31;;;;;;;4.28;1.10;;;21.10;80.00;;;;;;4178721;28;20072;-70
2021/05/10 05:36:31;;;;;;;3.38;0.93;;;21.10;80.20;;;;;;4182371;28;20027;-69
2021/05/10 05:38:35;;;;;;;2.78;1.23;;;21.10;80.50;;;;;;4183265;28;20045;-69
2021/05/10 05:40:39;;;;;;;3.42;1.75;;;21.10;80.50;;;;;;4187740;28;20028;-70
2021/05/10 05:42:40;;;;;;;4.18;1.33;;;21.00;80.30;;;;;;4178812;28;20036;-69
2021/05/10 05:44:45;;;;;;;5.15;1.50;;;21.00;80.70;;;;;;4174922;28;20485;-69
2021/05/10 05:46:49;;;;;;;7.47;1.27;;;21.00;81.60;;;;;;4181803;28;20061;-69
2021/05/10 05:48:49;;;;;;;4.93;1.00;;;21.00;81.40;;;;;;4177390;28;20047;-70
2021/05/10 05:50:50;;;;;;;4.35;1.10;;;21.00;81.50;;;;;;4180689;28;20040;-69
2021/05/10 05:52:51;;;;;;;3.15;1.30;;;21.00;82.30;;;;;;4177972;28;20028;-69
2021/05/10 05:54:53;;;;;;;0.95;0.82;;;21.00;81.90;;;;;;4178141;28;20051;-69
2021/05/10 05:56:53;;;;;;;3.97;1.17;;;21.00;82.20;;;;;;4183698;28;20066;-69
2021/05/10 05:58:54;;;;;;;3.33;1.10;;;20.90;82.20;;;;;;4182119;28;20029;-69
2021/05/10 06:00:55;;;;;;;3.50;1.48;;;20.90;82.70;;;;;;4181906;28;20040;-69
2021/05/10 06:02:55;;;;;;;5.05;1.30;;;20.90;83.00;;;;;;4177745;28;20089;-69
2021/05/10 06:04:56;;;;;;;3.42;0.93;;;20.90;83.60;;;;;;4180033;28;20068;-70
2021/05/10 06:06:56;;;;;;;3.35;1.10;;;20.90;83.90;;;;;;4183756;28;20036;-69
2021/05/10 06:08:58;;;;;;;3.00;1.00;;;20.90;84.90;;;;;;4185912;28;20036;-70
2021/05/10 06:10:58;;;;;;;4.50;1.00;;;20.90;84.90;;;;;;4190463;28;20090;-69
2021/05/10 06:12:59;;;;;;;1.55;0.98;;;20.90;85.00;;;;;;4195580;28;20040;-69
2021/05/10 06:14:59;;;;;;;4.85;1.10;;;20.90;85.50;;;;;;4198172;28;20024;-69
2021/05/10 06:17:00;;;;;;;11.30;1.30;;;21.00;85.90;;;;;;4191099;28;20043;-69
2021/05/10 06:19:01;;;;;;;2.58;1.05;;;20.90;85.80;;;;;;4193512;28;20093;-70
2021/05/10 06:21:05;;;;;;;2.88;0.80;;;20.90;86.60;;;;;;4195862;28;20389;-69
2021/05/10 06:23:06;;;;;;;3.28;1.20;;;20.90;87.00;;;;;;4188409;28;20036;-70
2021/05/10 06:25:08;;;;;;;4.07;1.02;;;20.90;87.50;;;;;;4191429;28;20503;-70
2021/05/10 06:27:09;;;;;;;2.08;0.90;;;20.90;88.10;;;;;;4191562;28;20433;-70
2021/05/10 06:29:10;;;;;;;4.75;1.02;;;20.90;88.50;;;;;;4193707;28;20121;-70
2021/05/10 06:31:11;;;;;;;4.35;1.17;;;20.80;88.60;;;;;;4195125;28;20032;-69
2021/05/10 06:33:11;;;;;;;4.50;1.00;;;20.80;89.10;;;;;;4196101;28;20070;-70
2021/05/10 06:35:12;;;;;;;3.28;0.88;;;20.80;89.30;;;;;;4194136;28;20484;-70
2021/05/10 06:37:19;;;;;;;1.95;0.80;;;20.80;89.50;;;;;;4177489;28;20170;-69
2021/05/10 06:39:20;;;;;;;1.38;0.95;;;20.80;89.60;;;;;;4191966;28;20028;-70
2021/05/10 06:41:21;;;;;;;3.17;1.15;;;20.80;90.00;;;;;;4196458;28;20131;-69
2021/05/10 06:43:21;;;;;;;2.50;1.10;;;20.80;90.20;;;;;;4190860;28;20090;-70
2021/05/10 06:45:22;;;;;;;6.85;1.40;;;20.80;90.30;;;;;;4192888;28;20039;-70
2021/05/10 06:47:26;;;;;;;3.75;1.02;;;20.80;90.10;;;;;;4191631;28;20029;-70
2021/05/10 06:49:26;;;;;;;2.25;1.10;;;20.80;90.70;;;;;;4191722;28;20033;-70
2021/05/10 06:51:27;;;;;;;8.57;1.13;;;20.80;90.60;;;;;;4196077;28;20106;-70
2021/05/10 06:53:28;;;;;;;4.60;1.20;;;20.80;90.80;;;;;;4195180;28;20040;-70
2021/05/10 06:55:28;;;;;;;4.18;1.15;;;20.90;91.10;;;;;;4193757;28;20120;-70
2021/05/10 06:57:29;;;;;;;6.28;1.42;;;20.90;91.10;;;;;;4195320;28;20081;-70
2021/05/10 06:59:30;;;;;;;6.40;1.33;;;20.90;91.00;;;;;;4194161;28;20503;-70
2021/05/10 07:01:32;;;;;;;4.95;1.40;;;20.90;91.20;;;;;;4195177;28;21301;-70
2021/05/10 07:03:32;;;;;;;8.77;1.73;;;21.00;91.20;;;;;;4199167;28;20036;-70
2021/05/10 07:05:33;;;;;;;14.48;1.65;;;21.00;91.50;;;;;;4196801;28;20059;-70
2021/05/10 07:07:34;;;;;;;4.47;1.48;;;21.10;91.00;;;;;;4193759;28;20139;-70
2021/05/10 07:09:34;;;;;;;3.13;1.23;;;21.20;91.10;;;;;;4194262;28;20553;-70
2021/05/10 07:11:35;;;;;;;3.55;1.20;;;21.20;91.20;;;;;;4193792;28;20407;-70
2021/05/10 07:13:36;;;;;;;4.40;1.13;;;21.30;90.00;;;;;;4187698;28;20866;-70
2021/05/10 07:15:36;;;;;;;5.97;1.88;;;21.40;89.70;;;;;;4193041;28;20033;-69
2021/05/10 07:17:37;;;;;;;2.00;0.70;;;21.40;88.60;;;;;;4173274;28;20052;-70
2021/05/10 07:19:38;;;;;;;1.83;0.88;;;21.40;87.60;;;;;;4193686;28;20036;-70
2021/05/10 07:21:38;;;;;;;1.27;0.75;;;21.30;87.20;;;;;;4192100;28;20060;-70
2021/05/10 07:23:39;;;;;;;3.03;1.13;;;21.30;87.00;;;;;;4194048;28;20060;-70
2021/05/10 07:25:42;;;;;;;2.30;1.02;;;21.30;87.90;;;;;;4191994;28;20111;-70
2021/05/10 07:27:43;;;;;;;3.25;1.17;;;21.30;88.50;;;;;;4187394;28;20045;-70
2021/05/10 07:29:43;;;;;;;1.40;0.63;;;21.20;89.20;;;;;;4190518;28;20633;-70
2021/05/10 07:31:44;;;;;;;0.68;0.68;;;21.20;89.10;;;;;;4193858;28;20041;-69
2021/05/10 07:33:45;;;;;;;1.40;0.70;;;21.10;89.20;;;;;;4194026;28;20039;-70
2021/05/10 07:35:45;;;;;;;1.55;0.65;;;20.90;88.90;;;;;;4191373;28;20033;-70
2021/05/10 07:37:46;;;;;;;7.93;1.05;;;20.80;90.00;;;;;;4193189;28;20469;-70
2021/05/10 07:39:47;;;;;;;2.60;0.80;;;20.70;90.40;;;;;;4193976;28;20037;-70
2021/05/10 07:41:47;;;;;;;1.27;0.50;;;20.70;90.70;;;;;;4194186;28;20101;-70
2021/05/10 07:43:48;;;;;;;2.95;0.80;;;20.50;90.80;;;;;;4193042;28;20059;-70
2021/05/10 07:45:49;;;;;;;1.65;0.70;;;20.50;91.20;;;;;;4187005;28;20126;-70
2021/05/10 07:47:52;;;;;;;2.75;0.70;;;20.40;91.30;;;;;;4190726;28;20032;-70
2021/05/10 07:49:53;;;;;;;1.40;0.50;;;20.30;91.40;;;;;;4192341;28;20040;-70
2021/05/10 07:51:54;;;;;;;1.48;0.45;;;20.20;91.60;;;;;;4190433;28;20037;-70
2021/05/10 07:53:56;;;;;;;1.10;0.52;;;20.20;91.80;;;;;;4193008;28;20031;-70
2021/05/10 07:55:57;;;;;;;1.25;0.45;;;20.20;91.80;;;;;;4193177;28;20072;-70
2021/05/10 07:57:57;;;;;;;1.92;0.57;;;20.30;92.20;;;;;;4190158;28;20036;-72
2021/05/10 07:59:58;;;;;;;0.90;0.40;;;20.30;92.00;;;;;;4186506;28;20127;-70
2021/05/10 08:02:00;;;;;;;3.70;0.80;;;20.30;91.90;;;;;;4193056;28;20033;-70
2021/05/10 08:04:00;;;;;;;0.73;0.47;;;20.30;92.60;;;;;;4188037;28;20561;-70
2021/05/10 08:06:02;;;;;;;0.75;0.30;;;20.30;92.70;;;;;;4192353;28;20109;-70
2021/05/10 08:08:03;;;;;;;2.97;0.50;;;20.30;92.40;;;;;;4191447;28;20034;-69
2021/05/10 08:10:08;;;;;;;6.43;1.05;;;20.30;92.50;;;;;;4192843;28;20055;-70
2021/05/10 08:12:08;;;;;;;0.22;0.22;;;20.20;92.40;;;;;;4191821;28;20123;-70
2021/05/10 08:14:09;;;;;;;1.83;0.52;;;20.20;92.60;;;;;;4192469;28;20033;-70
2021/05/10 08:16:10;;;;;;;1.02;0.40;;;20.20;92.60;;;;;;4187563;28;20041;-70
2021/05/10 08:18:11;;;;;;;2.95;0.50;;;20.20;92.60;;;;;;4189082;28;20051;-70
2021/05/10 08:20:13;;;;;;;1.92;0.70;;;20.20;92.50;;;;;;4171084;28;571679;-70
2021/05/10 08:22:14;;;;;;;0.55;0.40;;;20.10;92.60;;;;;;4185790;28;20111;-70
2021/05/10 08:24:15;;;;;;;0.60;0.30;;;20.10;92.90;;;;;;4191544;28;20033;-70
2021/05/10 08:26:16;;;;;;;2.95;0.50;;;20.00;92.40;;;;;;4189291;28;20078;-70
2021/05/10 08:28:16;;;;;;;1.38;0.30;;;20.10;92.70;;;;;;4191265;28;20151;-70
2021/05/10 08:30:17;;;;;;;2.40;0.43;;;20.00;92.80;;;;;;4188789;28;20033;-70
2021/05/10 08:32:18;;;;;;;2.38;0.57;;;20.00;93.20;;;;;;4189003;28;20064;-70
2021/05/10 08:34:19;;;;;;;1.85;0.45;;;20.00;93.70;;;;;;4192448;28;20887;-70
2021/05/10 08:36:19;;;;;;;1.67;0.68;;;20.10;93.80;;;;;;4192016;28;20112;-70
2021/05/10 08:38:20;;;;;;;3.92;0.52;;;20.10;93.60;;;;;;4193860;28;20475;-70
2021/05/10 08:40:20;;;;;;;0.40;0.30;;;20.10;92.90;;;;;;4189456;28;20032;-70
2021/05/10 08:42:21;;;;;;;2.00;0.60;;;20.20;93.60;;;;;;4188172;28;20539;-69
2021/05/10 08:44:22;;;;;;;3.15;0.60;;;20.30;92.90;;;;;;4187362;28;20051;-70
2021/05/10 08:46:23;;;;;;;2.33;0.60;;;20.40;92.10;;;;;;4194248;28;20044;-70
2021/05/10 08:48:25;;;;;;;0.95;0.60;;;20.50;92.50;;;;;;4193501;28;20033;-69
2021/05/10 08:50:25;;;;;;;0.45;0.30;;;20.60;91.50;;;;;;4194329;28;20123;-70
2021/05/10 08:52:27;;;;;;;0.60;0.40;;;20.70;91.90;;;;;;4191734;28;20041;-70
2021/05/10 08:54:28;;;;;;;1.15;0.50;;;20.70;91.50;;;;;;4190489;28;20024;-70
2021/05/10 08:56:29;;;;;;;1.02;0.55;;;20.60;90.80;;;;;;4194417;28;20493;-70
2021/05/10 08:58:45;;;;;;;1.33;0.40;;;20.50;91.30;;;;;;4188560;28;20119;-70
2021/05/10 09:00:53;;;;;;;11.02;0.77;;;20.40;91.60;;;;;;4187003;28;20036;-70
2021/05/10 09:03:12;;;;;;;1.83;1.00;;;20.40;92.00;;;;;;4195727;28;20035;-70
2021/05/10 09:05:14;;;;;;;0.65;0.52;;;20.20;91.90;;;;;;4189627;28;20505;-70
2021/05/10 09:07:25;;;;;;;0.77;0.73;;;20.20;92.50;;;;;;4189781;28;20060;-70
2021/05/10 09:09:25;;;;;;;0.70;0.50;;;20.20;92.80;;;;;;4188847;28;20093;-69
2021/05/10 09:11:27;;;;;;;2.67;0.40;;;20.20;92.90;;;;;;4190729;28;20543;-70
2021/05/10 09:13:32;;;;;;;1.67;0.60;;;20.20;92.70;;;;;;4189150;28;20036;-70
2021/05/10 09:15:35;;;;;;;1.00;0.60;;;20.10;92.80;;;;;;4190827;28;20048;-70
2021/05/10 09:18:04;;;;;;;1.45;0.77;;;20.00;92.60;;;;;;4192105;28;20094;-70
2021/05/10 09:20:14;;;;;;;5.03;1.02;;;20.00;92.70;;;;;;4192479;28;20115;-69
2021/05/10 09:22:16;;;;;;;1.42;0.82;;;19.90;92.90;;;;;;4190819;28;20036;-70
2021/05/10 09:24:24;;;;;;;1.38;0.55;;;19.90;93.10;;;;;;4190349;28;20036;-70
2021/05/10 09:26:35;;;;;;;1.00;0.45;;;19.90;93.30;;;;;;4190712;28;20039;-70
2021/05/10 09:28:41;;;;;;;2.65;0.65;;;19.90;93.10;;;;;;4189163;28;20048;-70
2021/05/10 09:30:44;;;;;;;1.58;0.73;;;19.80;92.80;;;;;;4193135;28;20047;-70
2021/05/10 09:32:45;;;;;;;;;;;19.70;93.10;;;;;;4191460;28;20032;-69
2021/05/10 09:34:46;;;;;;;0.70;0.60;;;19.70;93.20;;;;;;4172270;28;19948;-70
2021/05/10 09:36:47;;;;;;;2.25;0.70;;;19.70;93.80;;;;;;4188034;28;20440;-70
2021/05/10 09:38:47;;;;;;;2.10;0.73;;;19.70;93.60;;;;;;4191588;28;20036;-70
2021/05/10 09:40:51;;;;;;;1.60;0.90;;;19.70;93.90;;;;;;4196688;28;20042;-70
2021/05/10 09:42:57;;;;;;;4.22;1.10;;;19.70;93.80;;;;;;4194126;28;20380;-70
2021/05/10 09:44:58;;;;;;;2.10;0.70;;;19.70;94.00;;;;;;4190277;28;20585;-70
2021/05/10 09:47:01;;;;;;;1.15;0.63;;;19.60;93.90;;;;;;4191211;28;20471;-70
2021/05/10 09:49:02;;;;;;;2.03;0.80;;;19.60;94.10;;;;;;4191184;28;20484;-70
2021/05/10 09:51:12;;;;;;;1.40;0.90;;;19.60;94.10;;;;;;4192567;28;20120;-69
2021/05/10 09:53:18;;;;;;;1.88;0.98;;;19.70;93.90;;;;;;4171613;28;20408;-70
2021/05/10 09:55:19;;;;;;;1.85;0.93;;;19.60;94.20;;;;;;4191743;28;20067;-70
2021/05/10 09:57:20;;;;;;;2.30;1.00;;;19.70;94.30;;;;;;4189511;28;20052;-69
2021/05/10 09:59:20;;;;;;;1.23;0.65;;;19.70;94.30;;;;;;4191307;28;20032;-70
2021/05/10 10:01:22;;;;;;;4.43;0.73;;;19.70;94.40;;;;;;4189203;28;20036;-70
2021/05/10 10:03:26;;;;;;;3.30;1.25;;;19.70;94.50;;;;;;4190578;28;20768;-70
2021/05/10 10:05:28;;;;;;;2.65;1.05;;;19.70;94.10;;;;;;4191067;28;20144;-70
2021/05/10 10:07:29;;;;;;;1.60;0.82;;;19.70;94.50;;;;;;4188151;28;21053;-69
2021/05/10 10:09:31;;;;;;;1.00;0.65;;;19.80;94.40;;;;;;4193015;28;20036;-69
2021/05/10 10:11:31;;;;;;;1.40;0.88;;;19.70;94.70;;;;;;4192599;28;20040;-70
2021/05/10 10:13:33;;;;;;;2.33;1.00;;;19.70;94.50;;;;;;4191780;28;20489;-70
2021/05/10 10:15:33;;;;;;;1.98;0.95;;;19.70;94.70;;;;;;4191206;28;20036;-70
2021/05/10 10:17:34;;;;;;;1.98;1.17;;;19.70;94.80;;;;;;4189912;28;20090;-70
2021/05/10 10:19:35;;;;;;;4.30;1.20;;;19.70;94.90;;;;;;4191236;28;20040;-70
2021/05/10 10:21:38;;;;;;;2.17;1.17;;;19.70;95.30;;;;;;4192128;28;20040;-70
2021/05/10 10:23:40;;;;;;;1.85;0.77;;;19.60;97.00;;;;;;4186984;28;20029;-70
2021/05/10 10:25:41;;;;;;;1.33;0.88;;;19.50;98.10;;;;;;4191116;28;20032;-70
2021/05/10 10:27:42;;;;;;;1.30;0.80;;;19.40;98.30;;;;;;4191456;28;20056;-70
2021/05/10 10:29:45;;;;;;;2.50;0.82;;;19.30;97.40;;;;;;4191452;28;20041;-70
2021/05/10 10:31:48;;;;;;;0.85;0.55;;;19.30;98.20;;;;;;4190398;28;20048;-70
2021/05/10 10:33:52;;;;;;;4.45;1.10;;;19.30;98.50;;;;;;4192954;28;20123;-70
2021/05/10 10:35:54;;;;;;;2.75;0.80;;;19.30;98.50;;;;;;4193302;28;20614;-70
2021/05/10 10:37:55;;;;;;;1.08;0.80;;;19.20;98.50;;;;;;4191630;28;20029;-70
2021/05/10 10:39:56;;;;;;;1.67;0.95;;;19.30;98.50;;;;;;4188983;28;20472;-70
2021/05/10 10:41:57;;;;;;;1.20;0.90;;;19.20;98.80;;;;;;4189106;28;20063;-70